createdAt,value
2017-03-23T00:00:01.808Z,8.18
2017-03-23T00:00:06.128Z,8.18
2017-03-23T00:00:10.217Z,8.18
2017-03-23T00:00:14.690Z,8.18
2017-03-23T00:00:19.003Z,8.18
2017-03-23T00:00:23.430Z,8.18
2017-03-23T00:00:27.738Z,8.17
2017-03-23T00:00:32.052Z,8.19
2017-03-23T00:00:36.482Z,8.18
2017-03-23T00:00:40.676Z,8.18
2017-03-23T00:00:44.747Z,8.18
2017-03-23T00:00:49.174Z,8.18
2017-03-23T00:00:53.483Z,8.18
2017-03-23T00:00:57.787Z,8.18
2017-03-23T00:01:02.461Z,8.19
2017-03-23T00:01:06.931Z,8.17
2017-03-23T00:01:11.238Z,8.18
2017-03-23T00:01:15.664Z,8.18
2017-03-23T00:01:19.976Z,8.18
2017-03-23T00:01:24.287Z,8.18
2017-03-23T00:01:28.596Z,8.18
2017-03-23T00:01:33.020Z,8.18
2017-03-23T00:01:37.218Z,8.18
2017-03-23T00:01:41.426Z,8.18
2017-03-23T00:01:45.737Z,8.17
2017-03-23T00:01:49.807Z,8.18
2017-03-23T00:01:54.242Z,8.17
2017-03-23T00:01:58.434Z,8.18
2017-03-23T00:02:02.841Z,8.17
2017-03-23T00:02:07.147Z,8.18
2017-03-23T00:02:11.344Z,8.17
2017-03-23T00:02:15.768Z,8.17
2017-03-23T00:02:20.082Z,8.17
2017-03-23T00:02:24.388Z,8.17
2017-03-23T00:02:28.828Z,8.17
2017-03-23T00:02:33.257Z,8.17
2017-03-23T00:02:37.566Z,8.17
2017-03-23T00:02:41.760Z,8.17
2017-03-23T00:02:46.105Z,8.16
2017-03-23T00:02:50.293Z,8.16
2017-03-23T00:02:54.604Z,8.17
2017-03-23T00:02:59.044Z,8.16
2017-03-23T00:03:03.555Z,8.17
2017-03-23T00:03:07.978Z,8.17
2017-03-23T00:03:12.285Z,8.16
2017-03-23T00:03:16.591Z,8.17
2017-03-23T00:03:21.017Z,8.17
2017-03-23T00:03:25.440Z,8.16
2017-03-23T00:03:29.858Z,8.16
2017-03-23T00:03:34.167Z,8.17
2017-03-23T00:03:38.484Z,8.17
2017-03-23T00:03:42.561Z,8.17
2017-03-23T00:03:46.868Z,8.17
2017-03-23T00:03:51.293Z,8.17
2017-03-23T00:03:55.610Z,8.17
2017-03-23T00:04:00.036Z,8.17
2017-03-23T00:04:04.350Z,8.17
2017-03-23T00:04:08.669Z,8.18
2017-03-23T00:04:12.978Z,8.17
2017-03-23T00:04:17.287Z,8.18
2017-03-23T00:04:21.592Z,8.17
2017-03-23T00:04:25.669Z,8.17
2017-03-23T00:04:30.140Z,8.17
2017-03-23T00:04:34.330Z,8.16
2017-03-23T00:04:38.635Z,8.16
2017-03-23T00:04:42.832Z,8.17
2017-03-23T00:04:47.031Z,8.16
2017-03-23T00:04:51.231Z,8.17
2017-03-23T00:04:55.659Z,8.17
2017-03-23T00:04:59.774Z,8.17
2017-03-23T00:05:03.893Z,8.17
2017-03-23T00:05:08.205Z,8.16
2017-03-23T00:05:12.631Z,8.18
2017-03-23T00:05:17.058Z,8.18
2017-03-23T00:05:21.365Z,8.17
2017-03-23T00:05:25.557Z,8.18
2017-03-23T00:05:29.982Z,8.17
2017-03-23T00:05:34.298Z,8.17
2017-03-23T00:05:38.604Z,8.17
2017-03-23T00:05:42.918Z,8.17
2017-03-23T00:05:47.351Z,8.17
2017-03-23T00:05:51.428Z,8.16
2017-03-23T00:05:55.859Z,8.16
2017-03-23T00:06:00.177Z,8.16
2017-03-23T00:06:04.615Z,8.17
2017-03-23T00:06:09.043Z,8.17
2017-03-23T00:06:13.468Z,8.16
2017-03-23T00:06:17.788Z,8.16
2017-03-23T00:06:22.261Z,8.16
2017-03-23T00:06:26.454Z,8.17
2017-03-23T00:06:30.761Z,8.16
2017-03-23T00:06:34.959Z,8.16
2017-03-23T00:06:39.399Z,8.16
2017-03-23T00:06:43.587Z,8.15
2017-03-23T00:06:48.018Z,8.16
2017-03-23T00:06:52.216Z,8.16
2017-03-23T00:06:56.582Z,8.16
2017-03-23T00:07:00.895Z,8.16
2017-03-23T00:07:05.336Z,8.17
2017-03-23T00:07:09.652Z,8.17
2017-03-23T00:07:14.099Z,8.17
2017-03-23T00:07:18.526Z,8.18
2017-03-23T00:07:22.960Z,8.16
2017-03-23T00:07:27.158Z,8.16
2017-03-23T00:07:31.353Z,8.16
2017-03-23T00:07:35.706Z,8.17
2017-03-23T00:07:39.905Z,8.17
2017-03-23T00:07:44.341Z,8.17
2017-03-23T00:07:48.656Z,8.17
2017-03-23T00:07:52.969Z,8.16
2017-03-23T00:07:57.393Z,8.17
2017-03-23T00:08:01.711Z,8.17
2017-03-23T00:08:06.144Z,8.17
2017-03-23T00:08:10.567Z,8.16
2017-03-23T00:08:14.653Z,8.16
2017-03-23T00:08:18.966Z,8.16
2017-03-23T00:08:23.281Z,8.17
2017-03-23T00:08:27.703Z,8.17
2017-03-23T00:08:31.775Z,8.17
2017-03-23T00:08:35.965Z,8.17
2017-03-23T00:08:40.163Z,8.17
2017-03-23T00:08:44.593Z,8.17
2017-03-23T00:08:48.901Z,8.17
2017-03-23T00:08:53.326Z,8.17
2017-03-23T00:08:57.649Z,8.17
2017-03-23T00:09:02.057Z,8.18
2017-03-23T00:09:06.364Z,8.17
2017-03-23T00:09:10.670Z,8.17
2017-03-23T00:09:15.101Z,8.17
2017-03-23T00:09:19.419Z,8.17
2017-03-23T00:09:23.604Z,8.16
2017-03-23T00:09:27.447Z,8.17
2017-03-23T00:09:31.643Z,8.17
2017-03-23T00:09:35.738Z,8.18
2017-03-23T00:09:40.049Z,8.17
2017-03-23T00:09:44.362Z,8.16
2017-03-23T00:09:48.822Z,8.17
2017-03-23T00:09:53.195Z,8.17
2017-03-23T00:09:57.560Z,8.17
2017-03-23T00:10:01.635Z,8.17
2017-03-23T00:10:06.255Z,8.18
2017-03-23T00:10:10.587Z,8.16
2017-03-23T00:10:14.799Z,8.17
2017-03-23T00:10:18.928Z,8.16
2017-03-23T00:10:23.132Z,8.17
2017-03-23T00:10:27.340Z,8.16
2017-03-23T00:10:31.301Z,8.16
2017-03-23T00:10:35.378Z,8.17
2017-03-23T00:10:39.689Z,8.17
2017-03-23T00:10:44.007Z,8.17
2017-03-23T00:10:48.316Z,8.17
2017-03-23T00:10:52.637Z,8.16
2017-03-23T00:10:57.074Z,8.16
2017-03-23T00:11:01.502Z,8.17
2017-03-23T00:11:05.818Z,8.16
2017-03-23T00:11:10.242Z,8.17
2017-03-23T00:11:14.323Z,8.17
2017-03-23T00:11:18.756Z,8.16
2017-03-23T00:11:23.073Z,8.16
2017-03-23T00:11:27.499Z,8.16
2017-03-23T00:11:31.713Z,8.17
2017-03-23T00:11:36.162Z,8.16
2017-03-23T00:11:40.468Z,8.16
2017-03-23T00:11:44.774Z,8.16
2017-03-23T00:11:48.961Z,8.15
2017-03-23T00:11:53.152Z,8.16
2017-03-23T00:11:57.352Z,8.15
2017-03-23T00:12:01.733Z,8.16
2017-03-23T00:12:06.045Z,8.15
2017-03-23T00:12:10.004Z,8.16
2017-03-23T00:12:14.432Z,8.15
2017-03-23T00:12:18.739Z,8.14
2017-03-23T00:12:23.047Z,8.14
2017-03-23T00:12:27.356Z,8.14
2017-03-23T00:12:31.678Z,8.14
2017-03-23T00:12:36.102Z,8.15
2017-03-23T00:12:40.298Z,8.14
2017-03-23T00:12:44.653Z,8.13
2017-03-23T00:12:48.956Z,8.13
2017-03-23T00:12:53.382Z,8.14
2017-03-23T00:12:57.718Z,8.14
2017-03-23T00:13:02.029Z,8.14
2017-03-23T00:13:06.464Z,8.12
2017-03-23T00:13:10.775Z,8.14
2017-03-23T00:13:15.200Z,8.13
2017-03-23T00:13:19.634Z,8.14
2017-03-23T00:13:24.091Z,8.14
2017-03-23T00:13:28.513Z,8.13
2017-03-23T00:13:32.705Z,8.13
2017-03-23T00:13:37.130Z,8.13
2017-03-23T00:13:41.444Z,8.13
2017-03-23T00:13:45.400Z,8.14
2017-03-23T00:13:49.585Z,8.13
2017-03-23T00:13:53.889Z,8.13
2017-03-23T00:13:58.200Z,8.13
2017-03-23T00:14:02.657Z,8.12
2017-03-23T00:14:06.849Z,8.13
2017-03-23T00:14:11.042Z,8.13
2017-03-23T00:14:15.348Z,8.13
2017-03-23T00:14:19.772Z,8.12
2017-03-23T00:14:24.195Z,8.12
2017-03-23T00:14:28.624Z,8.12
2017-03-23T00:14:32.932Z,8.12
2017-03-23T00:14:37.352Z,8.11
2017-03-23T00:14:41.437Z,8.12
2017-03-23T00:14:45.649Z,8.11
2017-03-23T00:14:49.959Z,8.12
2017-03-23T00:14:54.275Z,8.12
2017-03-23T00:14:58.617Z,8.12
2017-03-23T00:15:03.226Z,8.12
2017-03-23T00:15:07.654Z,8.11
2017-03-23T00:15:12.093Z,8.11
2017-03-23T00:15:16.526Z,8.11
2017-03-23T00:15:20.955Z,8.1
2017-03-23T00:15:25.265Z,8.11
2017-03-23T00:15:29.697Z,8.11
2017-03-23T00:15:34.006Z,8.11
2017-03-23T00:15:38.199Z,8.1
2017-03-23T00:15:42.414Z,8.1
2017-03-23T00:15:46.839Z,8.11
2017-03-23T00:15:51.157Z,8.1
2017-03-23T00:15:55.476Z,8.09
2017-03-23T00:15:59.670Z,8.1
2017-03-23T00:16:04.095Z,8.1
2017-03-23T00:16:08.283Z,8.1
2017-03-23T00:16:12.753Z,8.11
2017-03-23T00:16:17.181Z,8.1
2017-03-23T00:16:21.608Z,8.1
2017-03-23T00:16:26.039Z,8.09
2017-03-23T00:16:30.473Z,8.09
2017-03-23T00:16:34.665Z,8.09
2017-03-23T00:16:38.973Z,8.08
2017-03-23T00:16:43.394Z,8.09
2017-03-23T00:16:47.830Z,8.09
2017-03-23T00:16:52.290Z,8.09
2017-03-23T00:16:56.598Z,8.09
2017-03-23T00:17:00.917Z,8.09
2017-03-23T00:17:05.347Z,8.09
2017-03-23T00:17:09.776Z,8.09
2017-03-23T00:17:14.091Z,8.09
2017-03-23T00:17:18.406Z,8.09
2017-03-23T00:17:22.710Z,8.09
2017-03-23T00:17:27.025Z,8.09
2017-03-23T00:17:31.463Z,8.09
2017-03-23T00:17:35.771Z,8.09
2017-03-23T00:17:40.076Z,8.08
2017-03-23T00:17:44.509Z,8.08
2017-03-23T00:17:48.713Z,8.09
2017-03-23T00:17:52.901Z,8.08
2017-03-23T00:17:57.215Z,8.08
2017-03-23T00:18:01.731Z,8.09
2017-03-23T00:18:06.039Z,8.08
2017-03-23T00:18:10.460Z,8.08
2017-03-23T00:18:14.654Z,8.09
2017-03-23T00:18:19.082Z,8.09
2017-03-23T00:18:23.384Z,8.09
2017-03-23T00:18:27.575Z,8.09
2017-03-23T00:18:31.894Z,8.08
2017-03-23T00:18:36.361Z,8.08
2017-03-23T00:18:40.665Z,8.08
2017-03-23T00:18:44.741Z,8.09
2017-03-23T00:18:48.946Z,8.08
2017-03-23T00:18:53.022Z,8.09
2017-03-23T00:18:57.331Z,8.09
2017-03-23T00:19:01.567Z,8.08
2017-03-23T00:19:05.995Z,8.09
2017-03-23T00:19:10.300Z,8.09
2017-03-23T00:19:14.732Z,8.08
2017-03-23T00:19:19.155Z,8.08
2017-03-23T00:19:23.460Z,8.08
2017-03-23T00:19:27.884Z,8.08
2017-03-23T00:19:32.201Z,8.08
2017-03-23T00:19:36.516Z,8.08
2017-03-23T00:19:40.701Z,8.08
2017-03-23T00:19:44.771Z,8.09
2017-03-23T00:19:49.201Z,8.08
2017-03-23T00:19:53.435Z,8.08
2017-03-23T00:19:58.037Z,8.07
2017-03-23T00:20:02.647Z,8.08
2017-03-23T00:20:06.849Z,8.08
2017-03-23T00:20:11.154Z,8.09
2017-03-23T00:20:15.584Z,8.08
2017-03-23T00:20:20.005Z,8.08
2017-03-23T00:20:24.310Z,8.08
2017-03-23T00:20:28.623Z,8.08
2017-03-23T00:20:33.053Z,8.07
2017-03-23T00:20:37.246Z,8.08
2017-03-23T00:20:41.551Z,8.08
2017-03-23T00:20:45.744Z,8.08
2017-03-23T00:20:50.198Z,8.08
2017-03-23T00:20:54.517Z,8.08
2017-03-23T00:20:58.707Z,8.08
2017-03-23T00:21:02.907Z,8.07
2017-03-23T00:21:07.336Z,8.08
2017-03-23T00:21:11.650Z,8.07
2017-03-23T00:21:15.967Z,8.07
2017-03-23T00:21:20.312Z,8.08
2017-03-23T00:21:24.502Z,8.08
2017-03-23T00:21:28.933Z,8.07
2017-03-23T00:21:33.247Z,8.07
2017-03-23T00:21:37.470Z,8.08
2017-03-23T00:21:41.774Z,8.06
2017-03-23T00:21:46.087Z,8.07
2017-03-23T00:21:50.402Z,8.07
2017-03-23T00:21:54.602Z,8.07
2017-03-23T00:21:58.904Z,8.08
2017-03-23T00:22:03.210Z,8.07
2017-03-23T00:22:07.521Z,8.07
2017-03-23T00:22:11.848Z,8.07
2017-03-23T00:22:16.276Z,8.07
2017-03-23T00:22:20.717Z,8.06
2017-03-23T00:22:25.151Z,8.06
2017-03-23T00:22:29.584Z,8.07
2017-03-23T00:22:34.008Z,8.06
2017-03-23T00:22:38.202Z,8.06
2017-03-23T00:22:42.549Z,8.06
2017-03-23T00:22:46.734Z,8.06
2017-03-23T00:22:51.165Z,8.06
2017-03-23T00:22:55.354Z,8.06
2017-03-23T00:22:59.702Z,8.05
2017-03-23T00:23:04.432Z,8.05
2017-03-23T00:23:08.741Z,8.04
2017-03-23T00:23:13.057Z,8.05
2017-03-23T00:23:17.531Z,8.05
2017-03-23T00:23:21.720Z,8.05
2017-03-23T00:23:25.916Z,8.05
2017-03-23T00:23:30.348Z,8.05
2017-03-23T00:23:34.662Z,8.05
2017-03-23T00:23:38.972Z,8.05
2017-03-23T00:23:43.277Z,8.06
2017-03-23T00:23:47.473Z,8.05
2017-03-23T00:23:51.817Z,8.05
2017-03-23T00:23:56.129Z,8.04
2017-03-23T00:24:00.434Z,8.04
2017-03-23T00:24:04.858Z,8.04
2017-03-23T00:24:09.059Z,8.04
2017-03-23T00:24:13.488Z,8.05
2017-03-23T00:24:17.444Z,8.04
2017-03-23T00:24:21.863Z,8.04
2017-03-23T00:24:25.941Z,8.04
2017-03-23T00:24:30.363Z,8.04
2017-03-23T00:24:34.551Z,8.04
2017-03-23T00:24:38.970Z,8.03
2017-03-23T00:24:43.280Z,8.04
2017-03-23T00:24:47.474Z,8.04
2017-03-23T00:24:51.780Z,8.03
2017-03-23T00:24:55.969Z,8.03
2017-03-23T00:25:00.354Z,8.03
2017-03-23T00:25:04.796Z,8.03
2017-03-23T00:25:09.099Z,8.03
2017-03-23T00:25:13.524Z,8.02
2017-03-23T00:25:17.717Z,8.03
2017-03-23T00:25:22.150Z,8.03
2017-03-23T00:25:26.459Z,8.03
2017-03-23T00:25:30.649Z,8.02
2017-03-23T00:25:34.841Z,8.02
2017-03-23T00:25:39.156Z,8.03
2017-03-23T00:25:43.461Z,8.04
2017-03-23T00:25:47.537Z,8.03
2017-03-23T00:25:51.841Z,8.03
2017-03-23T00:25:56.151Z,8.03
2017-03-23T00:26:00.464Z,8.03
2017-03-23T00:26:04.892Z,8.03
2017-03-23T00:26:09.205Z,8.03
2017-03-23T00:26:13.635Z,8.03
2017-03-23T00:26:17.824Z,8.04
2017-03-23T00:26:22.144Z,8.03
2017-03-23T00:26:26.452Z,8.04
2017-03-23T00:26:30.766Z,8.04
2017-03-23T00:26:35.111Z,8.03
2017-03-23T00:26:39.308Z,8.03
2017-03-23T00:26:43.382Z,8.03
2017-03-23T00:26:47.822Z,8.03
2017-03-23T00:26:52.137Z,8.03
2017-03-23T00:26:56.442Z,8.03
2017-03-23T00:27:00.753Z,8.03
2017-03-23T00:27:05.061Z,8.03
2017-03-23T00:27:09.492Z,8.03
2017-03-23T00:27:13.922Z,8.04
2017-03-23T00:27:18.229Z,8.03
2017-03-23T00:27:22.659Z,8.03
2017-03-23T00:27:27.090Z,8.03
2017-03-23T00:27:31.519Z,8.04
2017-03-23T00:27:35.946Z,8.03
2017-03-23T00:27:40.144Z,8.03
2017-03-23T00:27:44.219Z,8.03
2017-03-23T00:27:48.285Z,8.03
2017-03-23T00:27:52.590Z,8.03
2017-03-23T00:27:57.012Z,8.04
2017-03-23T00:28:01.323Z,8.03
2017-03-23T00:28:05.638Z,8.02
2017-03-23T00:28:09.834Z,8.02
2017-03-23T00:28:14.180Z,8.02
2017-03-23T00:28:18.614Z,8.03
2017-03-23T00:28:22.804Z,8.02
2017-03-23T00:28:27.228Z,8.03
2017-03-23T00:28:31.543Z,8.02
2017-03-23T00:28:35.965Z,8.02
2017-03-23T00:28:40.156Z,8.02
2017-03-23T00:28:44.460Z,8.02
2017-03-23T00:28:48.889Z,8.03
2017-03-23T00:28:53.204Z,8.02
2017-03-23T00:28:57.511Z,8.02
2017-03-23T00:29:01.816Z,8.02
2017-03-23T00:29:06.254Z,8.02
2017-03-23T00:29:10.559Z,8.03
2017-03-23T00:29:14.986Z,8.02
2017-03-23T00:29:19.213Z,8.02
2017-03-23T00:29:23.633Z,8.02
2017-03-23T00:29:27.822Z,8.02
2017-03-23T00:29:32.256Z,8.02
2017-03-23T00:29:36.572Z,8.02
2017-03-23T00:29:40.889Z,8.02
2017-03-23T00:29:45.079Z,8.01
2017-03-23T00:29:49.383Z,8.02
2017-03-23T00:29:53.687Z,8.01
2017-03-23T00:29:58.003Z,8.02
2017-03-23T00:30:02.477Z,8.02
2017-03-23T00:30:06.665Z,8.02
2017-03-23T00:30:11.096Z,8.02
2017-03-23T00:30:15.520Z,8.02
2017-03-23T00:30:19.947Z,8.01
2017-03-23T00:30:24.369Z,8.01
2017-03-23T00:30:28.678Z,8.01
2017-03-23T00:30:32.987Z,8.02
2017-03-23T00:30:37.412Z,8.02
2017-03-23T00:30:41.724Z,8.01
2017-03-23T00:30:46.038Z,8.01
2017-03-23T00:30:50.466Z,8.01
2017-03-23T00:30:54.773Z,8.01
2017-03-23T00:30:59.208Z,8
2017-03-23T00:31:03.618Z,8.01
2017-03-23T00:31:08.054Z,8.01
2017-03-23T00:31:12.485Z,8.01
2017-03-23T00:31:16.795Z,8.01
2017-03-23T00:31:21.226Z,8.01
2017-03-23T00:31:25.648Z,8.01
2017-03-23T00:31:29.962Z,8
2017-03-23T00:31:34.273Z,8.01
2017-03-23T00:31:38.467Z,8.01
2017-03-23T00:31:42.780Z,8
2017-03-23T00:31:47.206Z,8
2017-03-23T00:31:51.396Z,8
2017-03-23T00:31:55.825Z,8.01
2017-03-23T00:32:00.289Z,8
2017-03-23T00:32:04.931Z,8
2017-03-23T00:32:09.357Z,8.01
2017-03-23T00:32:13.824Z,8
2017-03-23T00:32:18.249Z,8
2017-03-23T00:32:22.553Z,8
2017-03-23T00:32:26.861Z,8
2017-03-23T00:32:31.170Z,7.99
2017-03-23T00:32:35.358Z,7.99
2017-03-23T00:32:39.666Z,7.99
2017-03-23T00:32:44.099Z,7.98
2017-03-23T00:32:48.297Z,7.99
2017-03-23T00:32:52.602Z,7.98
2017-03-23T00:32:56.905Z,7.98
2017-03-23T00:33:01.102Z,7.98
2017-03-23T00:33:05.419Z,7.98
2017-03-23T00:33:09.731Z,7.99
2017-03-23T00:33:14.204Z,7.98
2017-03-23T00:33:18.626Z,7.98
2017-03-23T00:33:22.925Z,7.98
2017-03-23T00:33:27.233Z,7.97
2017-03-23T00:33:31.665Z,7.98
2017-03-23T00:33:35.972Z,7.99
2017-03-23T00:33:40.165Z,7.98
2017-03-23T00:33:44.350Z,7.97
2017-03-23T00:33:48.661Z,7.98
2017-03-23T00:33:52.965Z,7.97
2017-03-23T00:33:57.389Z,7.97
2017-03-23T00:34:01.698Z,7.98
2017-03-23T00:34:06.009Z,7.97
2017-03-23T00:34:10.435Z,7.97
2017-03-23T00:34:14.860Z,7.97
2017-03-23T00:34:19.317Z,7.98
2017-03-23T00:34:23.626Z,7.97
2017-03-23T00:34:27.938Z,7.97
2017-03-23T00:34:32.249Z,7.98
2017-03-23T00:34:36.441Z,7.97
2017-03-23T00:34:40.747Z,7.97
2017-03-23T00:34:45.054Z,7.97
2017-03-23T00:34:49.488Z,7.97
2017-03-23T00:34:53.563Z,7.97
2017-03-23T00:34:57.981Z,7.98
2017-03-23T00:35:02.414Z,7.97
2017-03-23T00:35:06.606Z,7.97
2017-03-23T00:35:10.935Z,7.97
2017-03-23T00:35:15.244Z,7.97
2017-03-23T00:35:19.669Z,7.97
2017-03-23T00:35:23.741Z,7.97
2017-03-23T00:35:28.058Z,7.97
2017-03-23T00:35:32.257Z,7.97
2017-03-23T00:35:36.566Z,7.97
2017-03-23T00:35:40.647Z,7.97
2017-03-23T00:35:45.011Z,7.97
2017-03-23T00:35:49.325Z,7.97
2017-03-23T00:35:53.518Z,7.97
2017-03-23T00:35:57.835Z,7.95
2017-03-23T00:36:02.027Z,7.96
2017-03-23T00:36:06.454Z,7.96
2017-03-23T00:36:10.650Z,7.96
2017-03-23T00:36:15.007Z,7.96
2017-03-23T00:36:19.434Z,7.96
2017-03-23T00:36:23.742Z,7.96
2017-03-23T00:36:27.933Z,7.97
2017-03-23T00:36:32.131Z,7.96
2017-03-23T00:36:36.556Z,7.95
2017-03-23T00:36:40.749Z,7.95
2017-03-23T00:36:44.941Z,7.96
2017-03-23T00:36:49.364Z,7.96
2017-03-23T00:36:53.678Z,7.96
2017-03-23T00:36:58.138Z,7.95
2017-03-23T00:37:02.562Z,7.95
2017-03-23T00:37:06.752Z,7.95
2017-03-23T00:37:11.179Z,7.95
2017-03-23T00:37:15.250Z,7.94
2017-03-23T00:37:19.553Z,7.95
2017-03-23T00:37:23.740Z,7.94
2017-03-23T00:37:27.936Z,7.94
2017-03-23T00:37:32.247Z,7.94
2017-03-23T00:37:36.553Z,7.93
2017-03-23T00:37:40.627Z,7.94
2017-03-23T00:37:44.937Z,7.93
2017-03-23T00:37:49.246Z,7.94
2017-03-23T00:37:53.673Z,7.93
2017-03-23T00:37:57.986Z,7.93
2017-03-23T00:38:02.060Z,7.92
2017-03-23T00:38:06.369Z,7.94
2017-03-23T00:38:10.832Z,7.93
2017-03-23T00:38:15.302Z,7.94
2017-03-23T00:38:19.737Z,7.93
2017-03-23T00:38:24.039Z,7.92
2017-03-23T00:38:28.346Z,7.92
2017-03-23T00:38:32.780Z,7.92
2017-03-23T00:38:37.203Z,7.92
2017-03-23T00:38:41.509Z,7.93
2017-03-23T00:38:45.696Z,7.93
2017-03-23T00:38:50.125Z,7.93
2017-03-23T00:38:54.476Z,7.92
2017-03-23T00:38:58.898Z,7.93
2017-03-23T00:39:03.200Z,7.92
2017-03-23T00:39:07.510Z,7.94
2017-03-23T00:39:11.933Z,7.93
2017-03-23T00:39:16.129Z,7.93
2017-03-23T00:39:20.434Z,7.93
2017-03-23T00:39:24.748Z,7.94
2017-03-23T00:39:29.177Z,7.94
2017-03-23T00:39:33.647Z,7.94
2017-03-23T00:39:37.957Z,7.94
2017-03-23T00:39:42.145Z,7.94
2017-03-23T00:39:46.335Z,7.94
2017-03-23T00:39:50.415Z,7.94
2017-03-23T00:39:54.719Z,7.94
2017-03-23T00:39:59.193Z,7.94
2017-03-23T00:40:03.274Z,7.94
2017-03-23T00:40:07.702Z,7.94
2017-03-23T00:40:12.130Z,7.94
2017-03-23T00:40:16.443Z,7.94
2017-03-23T00:40:20.635Z,7.95
2017-03-23T00:40:25.059Z,7.94
2017-03-23T00:40:29.364Z,7.94
2017-03-23T00:40:33.794Z,7.94
2017-03-23T00:40:38.030Z,7.94
2017-03-23T00:40:42.337Z,7.94
2017-03-23T00:40:46.761Z,7.95
2017-03-23T00:40:51.077Z,7.94
2017-03-23T00:40:55.304Z,7.95
2017-03-23T00:40:59.622Z,7.94
2017-03-23T00:41:04.085Z,7.95
2017-03-23T00:41:08.444Z,7.95
2017-03-23T00:41:12.756Z,7.95
2017-03-23T00:41:17.194Z,7.94
2017-03-23T00:41:21.427Z,7.95
2017-03-23T00:41:25.889Z,7.95
2017-03-23T00:41:30.328Z,7.94
2017-03-23T00:41:34.752Z,7.93
2017-03-23T00:41:38.985Z,7.94
2017-03-23T00:41:43.183Z,7.95
2017-03-23T00:41:47.373Z,7.94
2017-03-23T00:41:51.679Z,7.95
2017-03-23T00:41:55.989Z,7.95
2017-03-23T00:42:00.453Z,7.95
2017-03-23T00:42:04.528Z,7.95
2017-03-23T00:42:08.959Z,7.96
2017-03-23T00:42:13.387Z,7.95
2017-03-23T00:42:17.820Z,7.95
2017-03-23T00:42:22.127Z,7.96
2017-03-23T00:42:26.551Z,7.96
2017-03-23T00:42:30.860Z,7.95
2017-03-23T00:42:35.210Z,7.95
2017-03-23T00:42:39.519Z,7.95
2017-03-23T00:42:43.821Z,7.96
2017-03-23T00:42:48.009Z,7.96
2017-03-23T00:42:52.325Z,7.95
2017-03-23T00:42:56.749Z,7.96
2017-03-23T00:43:01.052Z,7.97
2017-03-23T00:43:05.357Z,7.96
2017-03-23T00:43:09.819Z,7.96
2017-03-23T00:43:14.247Z,7.96
2017-03-23T00:43:18.557Z,7.96
2017-03-23T00:43:22.754Z,7.97
2017-03-23T00:43:26.948Z,7.96
2017-03-23T00:43:31.261Z,7.97
2017-03-23T00:43:35.568Z,7.97
2017-03-23T00:43:40.030Z,7.96
2017-03-23T00:43:44.458Z,7.97
2017-03-23T00:43:48.650Z,7.97
2017-03-23T00:43:52.953Z,7.97
2017-03-23T00:43:57.390Z,7.96
2017-03-23T00:44:01.582Z,7.98
2017-03-23T00:44:06.235Z,7.97
2017-03-23T00:44:10.539Z,7.97
2017-03-23T00:44:14.967Z,7.98
2017-03-23T00:44:19.392Z,7.98
2017-03-23T00:44:23.702Z,7.97
2017-03-23T00:44:28.122Z,7.98
2017-03-23T00:44:32.433Z,7.99
2017-03-23T00:44:36.898Z,7.98
2017-03-23T00:44:41.088Z,7.99
2017-03-23T00:44:45.279Z,7.99
2017-03-23T00:44:49.466Z,7.99
2017-03-23T00:44:53.773Z,8
2017-03-23T00:44:58.076Z,8
2017-03-23T00:45:02.387Z,8
2017-03-23T00:45:06.692Z,7.99
2017-03-23T00:45:11.009Z,7.99
2017-03-23T00:45:15.428Z,8
2017-03-23T00:45:19.740Z,8
2017-03-23T00:45:24.172Z,8
2017-03-23T00:45:28.488Z,8
2017-03-23T00:45:32.797Z,7.99
2017-03-23T00:45:37.220Z,8
2017-03-23T00:45:41.061Z,8.01
2017-03-23T00:45:45.496Z,8
2017-03-23T00:45:49.682Z,8.01
2017-03-23T00:45:53.987Z,8.01
2017-03-23T00:45:58.414Z,8.01
2017-03-23T00:46:02.725Z,8
2017-03-23T00:46:07.154Z,8.01
2017-03-23T00:46:11.464Z,8.01
2017-03-23T00:46:15.893Z,8.01
2017-03-23T00:46:20.321Z,8.01
2017-03-23T00:46:24.770Z,8.02
2017-03-23T00:46:29.195Z,8.01
2017-03-23T00:46:33.620Z,8.01
2017-03-23T00:46:38.052Z,8.02
2017-03-23T00:46:42.253Z,8.02
2017-03-23T00:46:46.569Z,8.02
2017-03-23T00:46:50.875Z,8.02
2017-03-23T00:46:55.187Z,8.02
2017-03-23T00:46:59.504Z,8.02
2017-03-23T00:47:03.809Z,8.03
2017-03-23T00:47:08.004Z,8.03
2017-03-23T00:47:12.427Z,8.02
2017-03-23T00:47:16.859Z,8.03
2017-03-23T00:47:21.282Z,8.02
2017-03-23T00:47:25.588Z,8.02
2017-03-23T00:47:29.893Z,8.03
2017-03-23T00:47:34.206Z,8.03
2017-03-23T00:47:38.535Z,8.02
2017-03-23T00:47:42.721Z,8.03
2017-03-23T00:47:47.024Z,8.03
2017-03-23T00:47:51.454Z,8.03
2017-03-23T00:47:55.885Z,8.03
2017-03-23T00:48:00.313Z,8.03
2017-03-23T00:48:04.735Z,8.03
2017-03-23T00:48:09.050Z,8.02
2017-03-23T00:48:13.516Z,8.03
2017-03-23T00:48:17.943Z,8.03
2017-03-23T00:48:22.249Z,8.03
2017-03-23T00:48:26.324Z,8.03
2017-03-23T00:48:30.632Z,8.04
2017-03-23T00:48:35.056Z,8.03
2017-03-23T00:48:39.368Z,8.03
2017-03-23T00:48:43.693Z,8.04
2017-03-23T00:48:48.000Z,8.04
2017-03-23T00:48:52.308Z,8.04
2017-03-23T00:48:56.732Z,8.04
2017-03-23T00:49:01.041Z,8.04
2017-03-23T00:49:05.540Z,8.04
2017-03-23T00:49:09.973Z,8.04
2017-03-23T00:49:14.394Z,8.03
2017-03-23T00:49:18.827Z,8.03
2017-03-23T00:49:23.131Z,8.03
2017-03-23T00:49:27.440Z,8.03
2017-03-23T00:49:31.753Z,8.04
2017-03-23T00:49:36.222Z,8.03
2017-03-23T00:49:40.649Z,8.04
2017-03-23T00:49:44.848Z,8.04
2017-03-23T00:49:49.269Z,8.04
2017-03-23T00:49:53.695Z,8.03
2017-03-23T00:49:58.001Z,8.03
2017-03-23T00:50:02.912Z,8.03
2017-03-23T00:50:07.227Z,8.03
2017-03-23T00:50:11.540Z,8.03
2017-03-23T00:50:15.964Z,8.04
2017-03-23T00:50:20.279Z,8.04
2017-03-23T00:50:24.590Z,8.03
2017-03-23T00:50:28.912Z,8.04
2017-03-23T00:50:33.109Z,8.04
2017-03-23T00:50:37.412Z,8.04
2017-03-23T00:50:41.482Z,8.03
2017-03-23T00:50:45.793Z,8.03
2017-03-23T00:50:50.219Z,8.03
2017-03-23T00:50:54.530Z,8.03
2017-03-23T00:50:58.958Z,8.03
2017-03-23T00:51:03.395Z,8.02
2017-03-23T00:51:07.701Z,8.03
2017-03-23T00:51:12.138Z,8.03
2017-03-23T00:51:16.449Z,8.03
2017-03-23T00:51:20.770Z,8.02
2017-03-23T00:51:25.193Z,8.03
2017-03-23T00:51:29.506Z,8.02
2017-03-23T00:51:33.699Z,8.02
2017-03-23T00:51:37.887Z,8.03
2017-03-23T00:51:42.079Z,8.03
2017-03-23T00:51:46.391Z,8.03
2017-03-23T00:51:50.701Z,8.02
2017-03-23T00:51:55.033Z,8.02
2017-03-23T00:51:59.340Z,8.02
2017-03-23T00:52:03.806Z,8.02
2017-03-23T00:52:08.237Z,8.01
2017-03-23T00:52:12.541Z,8.01
2017-03-23T00:52:16.852Z,8.01
2017-03-23T00:52:21.160Z,8.02
2017-03-23T00:52:25.461Z,8.01
2017-03-23T00:52:29.777Z,8.01
2017-03-23T00:52:33.971Z,8.01
2017-03-23T00:52:38.321Z,8.02
2017-03-23T00:52:42.507Z,8.01
2017-03-23T00:52:46.697Z,8.02
2017-03-23T00:52:51.008Z,8.01
2017-03-23T00:52:55.316Z,8.01
2017-03-23T00:52:59.515Z,8.01
2017-03-23T00:53:03.822Z,8.01
2017-03-23T00:53:08.244Z,8
2017-03-23T00:53:12.558Z,8.01
2017-03-23T00:53:16.905Z,8.01
2017-03-23T00:53:21.208Z,8.01
2017-03-23T00:53:25.509Z,8.01
2017-03-23T00:53:29.708Z,8.01
2017-03-23T00:53:34.013Z,8.01
2017-03-23T00:53:38.202Z,8.01
2017-03-23T00:53:42.511Z,8.01
2017-03-23T00:53:46.701Z,8.02
2017-03-23T00:53:51.010Z,8.02
2017-03-23T00:53:55.431Z,8.01
2017-03-23T00:53:59.850Z,8.02
2017-03-23T00:54:04.160Z,8.02
2017-03-23T00:54:08.358Z,8.02
2017-03-23T00:54:12.664Z,8.01
2017-03-23T00:54:17.095Z,8.01
2017-03-23T00:54:21.432Z,8.01
2017-03-23T00:54:25.855Z,8.01
2017-03-23T00:54:30.157Z,8.02
2017-03-23T00:54:34.587Z,8.01
2017-03-23T00:54:39.022Z,8
2017-03-23T00:54:43.218Z,8.01
2017-03-23T00:54:47.519Z,8
2017-03-23T00:54:51.709Z,8.01
2017-03-23T00:54:56.050Z,8.01
2017-03-23T00:55:00.351Z,8.01
2017-03-23T00:55:04.795Z,8.01
2017-03-23T00:55:09.229Z,8.01
2017-03-23T00:55:13.652Z,8.01
2017-03-23T00:55:17.964Z,8
2017-03-23T00:55:22.267Z,8.01
2017-03-23T00:55:26.582Z,8.01
2017-03-23T00:55:30.899Z,8.01
2017-03-23T00:55:35.320Z,8.01
2017-03-23T00:55:39.510Z,8.01
2017-03-23T00:55:43.937Z,8.01
2017-03-23T00:55:48.365Z,8.02
2017-03-23T00:55:52.788Z,8.02
2017-03-23T00:55:56.979Z,8.01
2017-03-23T00:56:01.054Z,8.01
2017-03-23T00:56:05.567Z,8.01
2017-03-23T00:56:09.634Z,8.01
2017-03-23T00:56:14.057Z,8.01
2017-03-23T00:56:18.369Z,8.01
2017-03-23T00:56:22.812Z,8.02
2017-03-23T00:56:27.007Z,8.01
2017-03-23T00:56:31.205Z,8.01
2017-03-23T00:56:35.651Z,8.01
2017-03-23T00:56:39.881Z,8.01
2017-03-23T00:56:44.179Z,8.02
2017-03-23T00:56:48.371Z,8.02
2017-03-23T00:56:52.690Z,8.01
2017-03-23T00:56:56.879Z,8.01
2017-03-23T00:57:01.193Z,8.02
2017-03-23T00:57:05.591Z,8.03
2017-03-23T00:57:09.787Z,8.02
2017-03-23T00:57:14.214Z,8.02
2017-03-23T00:57:18.402Z,8.02
2017-03-23T00:57:22.835Z,8.02
2017-03-23T00:57:27.144Z,8.01
2017-03-23T00:57:31.456Z,8.02
2017-03-23T00:57:35.773Z,8.02
2017-03-23T00:57:40.073Z,8.02
2017-03-23T00:57:44.137Z,8.03